Have a Safe July 4th! 

Flight Track Log - Related Links

Times and Time Zones

All times are in EST time to prevent confusion due to time zone crossing. See the CSN6815 flight status page for this flight to view local times or setup timezone preferences in your user account.

Time Position Orientation Groundspeed Altitude Reporting Facility
EST Latitude Longitude Course Direction KTS MPH feet Rate Location/Type
Sat 10:26:00 PM 43.8114 87.3521 223° Southwest  Level Estimated
Sat 10:27:00 PM 43.7155 87.2303 223° Southwest  Level Estimated
Sat 10:28:00 PM 43.6194 87.1089 222° Southwest  Level Estimated
Sat 10:29:00 PM 43.5233 86.9879 222° Southwest  Level Estimated
Sat 10:30:00 PM 43.4270 86.8672 222° Southwest  Level Estimated
Sat 10:31:00 PM 43.3306 86.7470 222° Southwest  Level Estimated
Sat 10:32:00 PM 43.2341 86.6271 222° Southwest  Level Estimated
Sat 10:33:00 PM 43.1375 86.5076 222° Southwest  Level Estimated
Sat 10:34:00 PM 43.0407 86.3885 222° Southwest  Level Estimated
Sat 10:35:00 PM 42.9438 86.2698 222° Southwest  Level Estimated
Sat 10:36:00 PM 42.8468 86.1514 222° Southwest  Level Estimated
Sat 10:37:00 PM 42.7496 86.0334 222° Southwest  Level Estimated
Sat 10:38:00 PM 42.6524 85.9158 222° Southwest  Level Estimated
Sat 10:39:00 PM 42.5550 85.7986 222° Southwest  Level Estimated
Sat 10:40:00 PM 42.4575 85.6817 222° Southwest  Level Estimated
Sat 10:41:00 PM 42.3599 85.5652 221° Southwest  Level Estimated
Sat 10:42:00 PM 42.2621 85.4490 221° Southwest  Level Estimated
Sat 10:43:00 PM 42.1643 85.3332 221° Southwest  Level Estimated
Sat 10:44:00 PM 42.0663 85.2178 221° Southwest  Level Estimated
Sat 10:45:00 PM 41.9682 85.1027 221° Southwest  Level Estimated
Sat 10:46:00 PM 41.8700 84.9879 221° Southwest  Level Estimated
Sat 10:47:00 PM 41.7717 84.8736 221° Southwest  Level Estimated
Sat 10:48:00 PM 41.6733 84.7595 221° Southwest  Level Estimated
Sat 10:49:00 PM 41.5748 84.6459 221° Southwest  Level Estimated
Sat 10:50:00 PM 41.4761 84.5325 221° Southwest  Level Estimated
Sat 10:51:00 PM 41.3774 84.4195 221° Southwest  Level Estimated
Sat 10:52:00 PM 41.2785 84.3069 221° Southwest  Level Estimated
Sat 10:53:00 PM 41.1795 84.1946 221° Southwest  Level Estimated
Sat 10:54:00 PM 41.0804 84.0826 220° Southwest  Level Estimated
Sat 10:55:00 PM 40.9812 83.9710 220° Southwest  Level Estimated
Sat 10:56:00 PM 40.8819 83.8597 220° Southwest  Level Estimated
Sat 10:57:00 PM 40.7825 83.7487 220° Southwest  Level Estimated
Sat 10:58:00 PM 40.6830 83.6381 220° Southwest  Level Estimated
Sat 10:59:00 PM 40.5834 83.5278 220° Southwest  Level Estimated
Sat 11:00:00 PM 40.4836 83.4178 220° Southwest  Level Estimated
Sat 11:01:00 PM 40.3838 83.3082 220° Southwest  Level Estimated
Sat 11:02:00 PM 40.2839 83.1989 220° Southwest  Level Estimated
Sat 11:03:00 PM 40.1838 83.0899 220° Southwest  Level Estimated
Sat 11:04:00 PM 40.0837 82.9812 220° Southwest  Level Estimated
Sat 11:05:00 PM 39.9835 82.8728 220° Southwest  Level Estimated
Sat 11:06:00 PM 39.8831 82.7648 220° Southwest  Level Estimated
Sat 11:07:00 PM 39.7827 82.6571 220° Southwest  Level Estimated
Sat 11:08:00 PM 39.6821 82.5497 219° Southwest  Level Estimated
Sat 11:09:00 PM 39.5815 82.4426 219° Southwest  Level Estimated
Sat 11:10:00 PM 39.4808 82.3358 219° Southwest  Level Estimated
Sat 11:11:00 PM 39.3799 82.2293 219° Southwest  Level Estimated
Sat 11:12:00 PM 39.2790 82.1231 219° Southwest  Level Estimated
Sat 11:13:00 PM 39.1780 82.0173 219° Southwest  Level Estimated
Sat 11:14:00 PM 39.0769 81.9117 219° Southwest  Level Estimated
Sat 11:15:00 PM 38.9756 81.8064 219° Southwest  Level Estimated
Sat 11:16:00 PM 38.8743 81.7015 219° Southwest  Level Estimated
Sat 11:17:00 PM 38.7729 81.5968 219° Southwest  Level Estimated
Sat 11:18:00 PM 38.6714 81.4924 219° Southwest  Level Estimated
Sat 11:19:00 PM 38.5698 81.3884 219° Southwest  Level Estimated
Sat 11:20:00 PM 38.4682 81.2846 219° Southwest  Level Estimated
Sat 11:21:00 PM 38.3664 81.1811 219° Southwest  Level Estimated
Sat 11:22:00 PM 38.2645 81.0779 219° Southwest  Level Estimated
Sat 11:23:00 PM 38.1626 80.9751 218° Southwest  Level Estimated
Sat 11:24:00 PM 38.0605 80.8724 218° Southwest  Level Estimated
Sat 11:25:00 PM 37.9584 80.7701 218° Southwest  Level Estimated
Sat 11:26:00 PM 37.8562 80.6681 218° Southwest  Level Estimated
Sat 11:27:00 PM 37.7539 80.5663 218° Southwest  Level Estimated
Sat 11:28:00 PM 37.6515 80.4648 218° Southwest  Level Estimated
Sat 11:29:00 PM 37.5490 80.3636 218° Southwest  Level Estimated
Sat 11:30:00 PM 37.4464 80.2627 218° Southwest  Level Estimated
Sat 11:31:00 PM 37.3438 80.1621 218° Southwest  Level Estimated
Sat 11:32:00 PM 37.2410 80.0617 218° Southwest  Level Estimated
Sat 11:33:00 PM 37.1382 79.9616 218° Southwest  Level Estimated
Sat 11:34:00 PM 37.0385 79.8649 218° Southwest  Level Estimated
Sat 11:35:00 PM 37.0385 79.8649 50° Northeast  Level Estimated
Sat 11:36:00 PM 37.0385 79.8649 50° Northeast  Level Estimated
Sat 11:37:00 PM 37.0385 79.8649 50° Northeast  Level Estimated
Sat 11:38:00 PM 37.0385 79.8649 50° Northeast  Level Estimated
Sat 11:39:00 PM 37.0385 79.8649 50° Northeast  Level Estimated
Sat 11:40:00 PM 37.0385 79.8649 50° Northeast  Level Estimated
Sat 11:41:00 PM 37.0385 79.8649 50° Northeast  Level Estimated
Sat 11:42:00 PM 37.0385 79.8649 50° Northeast  Level Estimated
Sat 11:43:00 PM 37.0385 79.8649 50° Northeast  Level Estimated
Sat 11:44:00 PM 37.0385 79.8649 50° Northeast  Level Estimated
Sat 11:45:00 PM 37.0385 79.8649 50° Northeast  Level Estimated
Sat 11:46:00 PM 37.0385 79.8649 50° Northeast  Level Estimated
Sat 11:47:00 PM 37.0385 79.8649 50° Northeast  Level Estimated
Sat 11:48:00 PM 37.0385 79.8649 50° Northeast  Level Estimated
Sat 11:49:00 PM 37.0385 79.8649 50° Northeast  Level Estimated
Sat 11:50:00 PM 37.0385 79.8649 50° Northeast  Level Estimated

Login

Don't have an account? Register now (free) for customized features, flight alerts, and more!